Time;durP1;ratioP1;P1;durP2;ratioP2;P2;SDS_P1;SDS_P2;PMS_P1;PMS_P2;Temp;Humidity;BMP_temperature;BMP_pressure;BME280_temperature;BME280_humidity;BME280_pressure;Samples;Min_cycle;Max_cycle;Signal;HPM_P1;HPM_P2
2023/07/09 00:02:13;;;;;;;6.32;2.70;;;;;;;;;;4973606;28;20117;-87
2023/07/09 00:04:38;;;;;;;4.18;2.45;;;;;;;;;;4975501;28;20077;-87
2023/07/09 00:07:04;;;;;;;5.75;2.60;;;;;;;;;;4975493;28;20026;-87
2023/07/09 00:09:31;;;;;;;4.57;2.30;;;;;;;;;;4974025;28;20030;-88
2023/07/09 00:11:58;;;;;;;4.60;2.80;;;;;;;;;;4991460;28;20030;-87
2023/07/09 00:14:23;;;;;;;5.35;2.83;;;;;;;;;;4993507;28;20032;-87
2023/07/09 00:16:49;;;;;;;7.13;2.67;;;;;;;;;;4991528;28;20111;-87
2023/07/09 00:19:24;;;;;;;6.80;3.35;;;;;;;;;;4973932;28;20109;-87
2023/07/09 00:21:53;;;;;;;9.55;2.45;;;;;;;;;;4974564;28;20034;-87
2023/07/09 00:24:19;;;;;;;3.45;2.58;;;;;;;;;;4974533;28;20054;-87
2023/07/09 00:26:46;;;;;;;4.38;2.25;;;;;;;;;;4973915;28;20037;-88
2023/07/09 00:29:12;;;;;;;5.55;2.63;;;;;;;;;;4976230;28;20023;-89
2023/07/09 00:31:40;;;;;;;4.70;2.70;;;;;;;;;;4975500;28;20026;-88
2023/07/09 00:34:13;;;;;;;4.65;2.60;;;;;;;;;;4974858;28;20062;-88
2023/07/09 00:36:40;;;;;;;3.53;2.45;;;;;;;;;;4975980;28;20136;-88
2023/07/09 00:39:15;;;;;;;5.45;2.70;;;;;;;;;;4977147;28;20058;-87
2023/07/09 00:41:41;;;;;;;6.97;2.90;;;;;;;;;;4973121;28;20042;-89
2023/07/09 00:44:25;;;;;;;6.82;2.63;;;;;;;;;;4977089;28;20031;-89
2023/07/09 00:46:50;;;;;;;10.90;2.53;;;;;;;;;;4979051;28;20037;-88
2023/07/09 00:49:46;;;;;;;7.18;2.63;;;;;;;;;;4991816;28;20086;-90
2023/07/09 00:52:28;;;;;;;4.63;2.83;;;;;;;;;;4978391;28;20062;-89
2023/07/09 00:54:54;;;;;;;5.65;2.42;;;;;;;;;;4979577;28;20025;-92
2023/07/09 00:57:24;;;;;;;4.05;2.40;;;;;;;;;;4986637;28;20039;-90
2023/07/09 01:00:09;;;;;;;4.25;2.42;;;;;;;;;;4977102;28;20027;-91
2023/07/09 01:02:35;;;;;;;4.28;2.42;;;;;;;;;;4975952;28;20073;-90
2023/07/09 01:05:03;;;;;;;5.70;2.58;;;;;;;;;;4976475;28;20033;-90
2023/07/09 01:07:31;;;;;;;3.58;2.47;;;;;;;;;;4975832;28;20232;-90
2023/07/09 01:09:57;;;;;;;4.07;2.20;;;;;;;;;;4976461;28;20019;-91
2023/07/09 01:12:24;;;;;;;6.20;2.80;;;;;;;;;;4977500;28;20050;-88
2023/07/09 01:14:54;;;;;;;3.47;2.40;;;;;;;;;;4975969;28;20038;-91
2023/07/09 01:17:20;;;;;;;5.90;2.63;;;;;;;;;;4976081;28;20038;-88
2023/07/09 01:19:50;;;;;;;4.28;2.67;;;;;;;;;;4975609;28;20065;-90
2023/07/09 01:22:18;;;;;;;6.07;3.00;;;;;;;;;;4976191;28;20027;-90
2023/07/09 01:24:52;;;;;;;4.72;2.92;;;;;;;;;;4983122;28;20084;-88
2023/07/09 01:27:26;;;;;;;4.78;2.20;;;;;;;;;;4976896;28;20037;-88
2023/07/09 01:29:53;;;;;;;5.05;2.72;;;;;;;;;;4972393;28;20292;-87
2023/07/09 01:32:20;;;;;;;6.10;2.88;;;;;;;;;;4972209;28;20022;-88
2023/07/09 01:34:54;;;;;;;5.82;2.38;;;;;;;;;;4972044;28;20077;-88
2023/07/09 01:37:23;;;;;;;5.93;2.47;;;;;;;;;;4973708;28;20101;-89
2023/07/09 01:39:50;;;;;;;6.00;2.75;;;;;;;;;;4974879;28;20402;-88
2023/07/09 01:42:24;;;;;;;4.43;2.72;;;;;;;;;;4978117;28;20078;-88
2023/07/09 01:44:51;;;;;;;4.47;2.70;;;;;;;;;;4978521;28;20026;-90
2023/07/09 01:47:17;;;;;;;6.15;2.67;;;;;;;;;;4978000;28;20014;-88
2023/07/09 01:49:46;;;;;;;7.25;3.13;;;;;;;;;;4979275;28;20076;-88
2023/07/09 01:52:13;;;;;;;4.45;2.40;;;;;;;;;;4980347;28;20053;-88
2023/07/09 01:54:39;;;;;;;10.32;2.65;;;;;;;;;;4982172;28;20467;-90
2023/07/09 01:57:34;;;;;;;6.35;3.05;;;;;;;;;;4986062;28;20674;-89
2023/07/09 02:00:09;;;;;;;6.15;2.92;;;;;;;;;;4974894;28;20026;-89
2023/07/09 02:02:35;;;;;;;3.92;2.53;;;;;;;;;;4971731;28;20023;-88
2023/07/09 02:05:01;;;;;;;6.07;2.80;;;;;;;;;;4972775;28;20396;-88
2023/07/09 02:07:59;;;;;;;7.03;2.75;;;;;;;;;;4973592;28;20037;-89
2023/07/09 02:10:27;;;;;;;6.97;2.92;;;;;;;;;;4972773;28;20047;-88
2023/07/09 02:15:45;;;;;;;5.13;2.95;;;;;;;;;;4957432;28;20034;-88
2023/07/09 02:18:20;;;;;;;6.43;3.15;;;;;;;;;;4973152;28;20026;-87
2023/07/09 02:20:46;;;;;;;7.43;2.85;;;;;;;;;;4977577;28;20027;-90
2023/07/09 02:23:12;;;;;;;6.03;3.22;;;;;;;;;;4977281;28;20023;-91
2023/07/09 02:26:22;;;;;;;6.97;3.90;;;;;;;;;;4977700;28;20027;-90
2023/07/09 02:28:49;;;;;;;5.07;3.05;;;;;;;;;;4977858;28;20019;-88
2023/07/09 02:31:40;;;;;;;8.27;3.40;;;;;;;;;;4978065;28;20117;-89
2023/07/09 02:34:53;;;;;;;7.57;3.70;;;;;;;;;;4982804;28;20027;-90
2023/07/09 02:37:21;;;;;;;7.30;3.42;;;;;;;;;;5011880;23;20106;-88
2023/07/09 02:39:47;;;;;;;5.53;3.40;;;;;;;;;;4975278;28;20029;-87
2023/07/09 02:42:14;;;;;;;9.40;4.05;;;;;;;;;;4979385;28;20386;-87
2023/07/09 02:44:41;;;;;;;5.78;3.17;;;;;;;;;;4972635;28;20560;-87
2023/07/09 02:47:07;;;;;;;8.38;3.83;;;;;;;;;;4972088;28;20478;-87
2023/07/09 02:49:32;;;;;;;6.70;3.92;;;;;;;;;;4975474;28;20022;-87
2023/07/09 02:51:58;;;;;;;9.43;3.80;;;;;;;;;;4972369;28;20031;-87
2023/07/09 02:54:23;;;;;;;10.45;3.72;;;;;;;;;;4974696;28;20026;-87
2023/07/09 02:56:48;;;;;;;10.82;4.07;;;;;;;;;;4973370;28;20031;-88
2023/07/09 02:59:14;;;;;;;9.70;4.07;;;;;;;;;;4974138;28;20109;-89
2023/07/09 03:01:40;;;;;;;10.02;4.75;;;;;;;;;;4974817;28;20073;-89
2023/07/09 03:04:05;;;;;;;10.55;4.07;;;;;;;;;;4974163;28;20031;-88
2023/07/09 03:06:35;;;;;;;8.40;3.67;;;;;;;;;;4966584;28;20101;-88
2023/07/09 03:09:01;;;;;;;8.85;3.83;;;;;;;;;;4989049;28;20030;-88
2023/07/09 03:11:31;;;;;;;9.88;3.80;;;;;;;;;;4974026;28;20074;-88
2023/07/09 03:14:01;;;;;;;7.22;3.90;;;;;;;;;;4974922;28;20043;-88
2023/07/09 03:16:28;;;;;;;10.63;4.10;;;;;;;;;;4976789;28;20037;-88
2023/07/09 03:18:54;;;;;;;6.30;3.67;;;;;;;;;;4998847;28;20015;-89
2023/07/09 03:21:24;;;;;;;8.68;3.85;;;;;;;;;;5012717;28;20126;-88
2023/07/09 03:23:50;;;;;;;9.52;3.95;;;;;;;;;;4977355;28;20027;-88
2023/07/09 03:26:15;;;;;;;9.63;3.78;;;;;;;;;;4973377;28;20023;-89
2023/07/09 03:28:41;;;;;;;9.18;4.35;;;;;;;;;;4996324;28;20482;-88
2023/07/09 03:31:06;;;;;;;8.55;3.75;;;;;;;;;;4980234;28;20026;-87
2023/07/09 03:33:32;;;;;;;15.60;3.80;;;;;;;;;;4973510;28;20045;-88
2023/07/09 03:35:57;;;;;;;8.38;3.80;;;;;;;;;;4973507;28;20034;-89
2023/07/09 03:38:23;;;;;;;8.50;4.18;;;;;;;;;;4974034;28;20057;-89
2023/07/09 03:40:52;;;;;;;8.52;3.65;;;;;;;;;;4975024;28;20033;-89
2023/07/09 03:43:18;;;;;;;9.00;4.07;;;;;;;;;;4974647;28;20026;-88
2023/07/09 03:45:45;;;;;;;8.15;4.25;;;;;;;;;;4973405;28;20019;-88
2023/07/09 03:48:11;;;;;;;8.00;4.00;;;;;;;;;;4972131;28;20034;-88
2023/07/09 03:50:37;;;;;;;11.85;4.45;;;;;;;;;;4972985;28;20423;-88
2023/07/09 03:53:03;;;;;;;9.50;4.35;;;;;;;;;;4974676;28;20077;-88
2023/07/09 03:55:29;;;;;;;10.32;4.18;;;;;;;;;;4974066;28;20042;-88
2023/07/09 03:57:54;;;;;;;7.93;3.85;;;;;;;;;;4973789;28;20509;-88
2023/07/09 04:00:20;;;;;;;10.75;4.22;;;;;;;;;;4974193;28;20030;-87
2023/07/09 04:02:46;;;;;;;7.70;3.95;;;;;;;;;;4977248;28;20030;-88
2023/07/09 04:05:11;;;;;;;10.02;4.75;;;;;;;;;;4971378;28;20521;-88
2023/07/09 04:07:37;;;;;;;5.97;3.95;;;;;;;;;;4973517;28;20617;-88
2023/07/09 04:10:04;;;;;;;6.35;3.72;;;;;;;;;;4969415;28;20479;-88
2023/07/09 04:12:29;;;;;;;7.07;3.83;;;;;;;;;;4971315;28;20247;-88
2023/07/09 04:14:55;;;;;;;7.82;3.90;;;;;;;;;;4981727;28;20046;-88
2023/07/09 04:17:21;;;;;;;8.50;3.72;;;;;;;;;;4988763;28;20394;-88
2023/07/09 04:19:47;;;;;;;8.18;3.63;;;;;;;;;;4970947;28;20042;-87
2023/07/09 04:22:12;;;;;;;7.90;4.32;;;;;;;;;;4971815;28;20030;-88
2023/07/09 04:24:38;;;;;;;6.85;3.80;;;;;;;;;;4972635;28;20383;-88
2023/07/09 04:27:04;;;;;;;8.35;3.42;;;;;;;;;;4980242;28;20026;-88
2023/07/09 04:29:30;;;;;;;7.45;3.80;;;;;;;;;;4974625;28;20038;-88
2023/07/09 04:31:56;;;;;;;6.85;3.50;;;;;;;;;;4973069;28;20035;-88
2023/07/09 04:34:22;;;;;;;7.57;3.67;;;;;;;;;;4980856;28;20030;-88
2023/07/09 04:36:48;;;;;;;7.53;3.70;;;;;;;;;;4965845;28;20050;-87
2023/07/09 04:39:13;;;;;;;6.40;3.80;;;;;;;;;;4971518;28;20569;-88
2023/07/09 04:41:39;;;;;;;5.70;3.30;;;;;;;;;;4972654;28;20041;-88
2023/07/09 04:44:04;;;;;;;8.25;3.97;;;;;;;;;;4973325;28;20031;-87
2023/07/09 04:46:29;;;;;;;8.10;3.55;;;;;;;;;;4970788;28;20031;-87
2023/07/09 04:48:55;;;;;;;7.80;3.70;;;;;;;;;;4976768;28;20030;-87
2023/07/09 04:51:21;;;;;;;8.35;3.38;;;;;;;;;;4973842;28;20023;-87
2023/07/09 04:53:46;;;;;;;8.65;3.38;;;;;;;;;;4971785;28;20059;-87
2023/07/09 04:56:12;;;;;;;9.43;3.33;;;;;;;;;;4970450;28;20034;-87
2023/07/09 04:58:38;;;;;;;5.30;2.92;;;;;;;;;;4973223;28;20401;-87
2023/07/09 05:01:03;;;;;;;7.85;3.05;;;;;;;;;;4969875;28;20019;-88
2023/07/09 05:03:29;;;;;;;13.57;3.35;;;;;;;;;;4966890;28;20089;-87
2023/07/09 05:05:54;;;;;;;5.32;3.35;;;;;;;;;;4969905;28;20166;-87
2023/07/09 05:08:21;;;;;;;6.50;3.15;;;;;;;;;;4973405;28;20037;-87
2023/07/09 05:10:51;;;;;;;8.05;3.03;;;;;;;;;;4976152;28;20082;-87
2023/07/09 05:13:17;;;;;;;5.53;2.78;;;;;;;;;;4975778;28;20427;-87
2023/07/09 05:15:45;;;;;;;4.88;3.10;;;;;;;;;;4980865;28;20019;-87
2023/07/09 05:18:12;;;;;;;6.57;3.10;;;;;;;;;;4979289;28;20018;-87
2023/07/09 05:20:38;;;;;;;6.38;3.38;;;;;;;;;;4975073;28;20019;-88
2023/07/09 05:23:03;;;;;;;4.82;3.15;;;;;;;;;;4972951;28;20027;-88
2023/07/09 05:25:29;;;;;;;6.40;3.33;;;;;;;;;;4976595;28;20052;-88
2023/07/09 05:27:55;;;;;;;7.40;3.03;;;;;;;;;;4979363;28;20081;-87
2023/07/09 05:30:20;;;;;;;5.13;3.33;;;;;;;;;;5006653;28;20037;-87
2023/07/09 05:32:47;;;;;;;8.13;3.30;;;;;;;;;;5003726;28;20038;-87
2023/07/09 05:35:13;;;;;;;6.68;2.78;;;;;;;;;;4977225;28;20035;-87
2023/07/09 05:37:38;;;;;;;5.53;3.13;;;;;;;;;;4971824;28;20034;-88
2023/07/09 05:40:06;;;;;;;6.57;3.20;;;;;;;;;;4975425;28;20128;-87
2023/07/09 05:42:31;;;;;;;5.78;3.35;;;;;;;;;;4973823;28;20046;-88
2023/07/09 05:44:57;;;;;;;4.65;2.88;;;;;;;;;;4973664;28;20022;-87
2023/07/09 05:47:24;;;;;;;5.82;3.40;;;;;;;;;;4974777;28;20046;-87
2023/07/09 05:49:50;;;;;;;4.63;2.63;;;;;;;;;;4974483;28;20026;-87
2023/07/09 05:52:17;;;;;;;6.45;3.20;;;;;;;;;;4973834;28;20023;-88
2023/07/09 05:54:43;;;;;;;4.28;2.60;;;;;;;;;;4973710;28;20106;-88
2023/07/09 05:57:08;;;;;;;7.07;3.22;;;;;;;;;;4980559;28;20077;-87
2023/07/09 05:59:34;;;;;;;5.25;3.40;;;;;;;;;;4974299;28;20119;-87
2023/07/09 06:02:00;;;;;;;4.72;2.85;;;;;;;;;;4977906;28;20080;-87
2023/07/09 06:04:26;;;;;;;6.25;3.35;;;;;;;;;;4975809;28;20020;-87
2023/07/09 06:06:52;;;;;;;6.00;3.15;;;;;;;;;;4974814;28;20026;-89
2023/07/09 06:09:17;;;;;;;5.50;3.10;;;;;;;;;;4974011;28;20065;-87
2023/07/09 06:11:43;;;;;;;6.07;2.80;;;;;;;;;;4977891;28;20409;-87
2023/07/09 06:14:09;;;;;;;5.10;2.95;;;;;;;;;;4981756;28;20089;-87
2023/07/09 06:16:35;;;;;;;9.30;3.05;;;;;;;;;;4975606;28;20034;-88
2023/07/09 06:19:00;;;;;;;4.10;2.85;;;;;;;;;;4971579;28;20033;-88
2023/07/09 06:21:25;;;;;;;8.88;2.90;;;;;;;;;;4971885;28;20509;-88
2023/07/09 06:23:51;;;;;;;7.90;2.78;;;;;;;;;;4982253;28;20030;-88
2023/07/09 06:26:16;;;;;;;5.93;2.97;;;;;;;;;;4976301;28;20089;-88
2023/07/09 06:28:42;;;;;;;5.90;3.00;;;;;;;;;;4972922;28;20046;-88
2023/07/09 06:31:07;;;;;;;5.50;3.20;;;;;;;;;;4975412;28;20045;-88
2023/07/09 06:33:32;;;;;;;6.18;3.30;;;;;;;;;;4981152;28;20081;-88
2023/07/09 06:36:00;;;;;;;4.70;3.08;;;;;;;;;;4973519;28;20031;-89
2023/07/09 06:38:27;;;;;;;9.52;3.40;;;;;;;;;;4989132;28;20520;-87
2023/07/09 06:40:52;;;;;;;3.88;2.75;;;;;;;;;;4983339;28;20508;-88
2023/07/09 06:43:18;;;;;;;4.78;3.00;;;;;;;;;;4973313;28;20109;-89
2023/07/09 06:45:58;;;;;;;7.25;3.05;;;;;;;;;;4974811;28;20118;-89
2023/07/09 06:48:25;;;;;;;5.78;2.95;;;;;;;;;;4973489;28;20474;-89
2023/07/09 06:50:53;;;;;;;5.35;3.25;;;;;;;;;;4973543;28;20039;-88
2023/07/09 06:53:20;;;;;;;9.45;3.67;;;;;;;;;;4974081;28;20093;-88
2023/07/09 06:55:46;;;;;;;10.02;3.10;;;;;;;;;;4973232;28;20442;-88
2023/07/09 06:58:11;;;;;;;5.20;3.10;;;;;;;;;;4974619;28;20414;-88
2023/07/09 07:00:37;;;;;;;4.30;2.80;;;;;;;;;;4976786;28;20398;-88
2023/07/09 07:03:04;;;;;;;10.80;4.15;;;;;;;;;;4971342;28;20030;-88
2023/07/09 07:05:29;;;;;;;6.18;3.35;;;;;;;;;;4973278;28;20031;-88
2023/07/09 07:07:54;;;;;;;5.53;2.97;;;;;;;;;;4968658;28;20034;-87
2023/07/09 07:10:20;;;;;;;6.20;3.60;;;;;;;;;;4975423;28;20031;-88
2023/07/09 07:12:47;;;;;;;6.78;2.72;;;;;;;;;;4973864;28;20438;-88
2023/07/09 07:15:15;;;;;;;6.43;2.88;;;;;;;;;;4975303;28;20022;-88
2023/07/09 07:17:41;;;;;;;4.05;3.22;;;;;;;;;;4972882;28;20026;-88
2023/07/09 07:20:08;;;;;;;5.15;3.00;;;;;;;;;;4972851;28;20109;-88
2023/07/09 07:22:33;;;;;;;5.32;3.08;;;;;;;;;;4982741;28;20027;-88
2023/07/09 07:24:59;;;;;;;4.65;2.88;;;;;;;;;;4974180;28;20395;-88
2023/07/09 07:27:24;;;;;;;6.03;3.13;;;;;;;;;;4977231;28;20034;-88
2023/07/09 07:29:49;;;;;;;3.95;3.00;;;;;;;;;;4974832;28;20498;-88
2023/07/09 07:32:15;;;;;;;6.82;3.17;;;;;;;;;;4974893;28;20031;-88
2023/07/09 07:34:40;;;;;;;7.22;3.28;;;;;;;;;;4973782;28;20474;-87
2023/07/09 07:37:05;;;;;;;5.57;2.90;;;;;;;;;;4993011;28;20078;-88
2023/07/09 07:39:31;;;;;;;4.35;2.72;;;;;;;;;;4973636;28;20031;-88
2023/07/09 07:41:57;;;;;;;5.22;3.33;;;;;;;;;;4974071;28;20033;-88
2023/07/09 07:44:23;;;;;;;5.47;3.08;;;;;;;;;;4972804;28;20057;-88
2023/07/09 07:46:48;;;;;;;4.75;3.05;;;;;;;;;;4973042;28;20022;-88
2023/07/09 07:49:13;;;;;;;4.82;2.88;;;;;;;;;;4972635;28;20046;-87
2023/07/09 07:51:39;;;;;;;4.88;3.10;;;;;;;;;;4970126;28;20062;-88
2023/07/09 07:54:06;;;;;;;9.38;3.42;;;;;;;;;;4965567;28;20019;-88
2023/07/09 07:56:32;;;;;;;4.90;3.30;;;;;;;;;;4973268;28;20035;-88
2023/07/09 07:58:57;;;;;;;8.57;3.33;;;;;;;;;;4973255;28;20106;-88
2023/07/09 08:01:22;;;;;;;5.18;2.92;;;;;;;;;;4972579;28;20034;-88
2023/07/09 08:03:48;;;;;;;4.90;3.00;;;;;;;;;;4977922;28;20046;-88
2023/07/09 08:06:13;;;;;;;5.88;3.03;;;;;;;;;;4973060;28;20090;-88
2023/07/09 08:08:39;;;;;;;5.18;3.20;;;;;;;;;;4974171;28;20093;-88
2023/07/09 08:11:07;;;;;;;5.10;3.13;;;;;;;;;;4973818;28;20125;-88
2023/07/09 08:13:36;;;;;;;8.02;3.38;;;;;;;;;;4973915;28;20141;-87
2023/07/09 08:16:02;;;;;;;4.85;3.10;;;;;;;;;;4974713;28;20513;-88
2023/07/09 08:18:27;;;;;;;10.75;3.22;;;;;;;;;;4975175;28;20038;-88
2023/07/09 08:20:53;;;;;;;5.90;2.55;;;;;;;;;;4975368;28;20446;-88
2023/07/09 08:23:18;;;;;;;5.45;3.03;;;;;;;;;;4982037;28;20060;-87
2023/07/09 08:25:44;;;;;;;6.18;3.22;;;;;;;;;;4996555;28;20026;-88
2023/07/09 08:28:09;;;;;;;4.45;2.80;;;;;;;;;;4997680;28;20050;-89
2023/07/09 08:30:36;;;;;;;4.65;2.80;;;;;;;;;;4988562;28;20093;-89
2023/07/09 08:33:01;;;;;;;6.28;3.28;;;;;;;;;;4976493;28;20033;-89
2023/07/09 08:35:26;;;;;;;6.70;3.10;;;;;;;;;;4976755;28;20039;-89
2023/07/09 08:41:35;;;;;;;5.50;2.80;;;;;;;;;;4975868;28;20037;-89
2023/07/09 08:44:00;;;;;;;5.65;3.35;;;;;;;;;;4968367;28;20091;-89
2023/07/09 08:46:41;;;;;;;3.33;2.40;;;;;;;;;;4973595;28;20097;-88
2023/07/09 08:49:18;;;;;;;8.70;3.55;;;;;;;;;;4974079;28;20268;-88
2023/07/09 08:51:44;;;;;;;5.43;3.17;;;;;;;;;;4981202;28;20059;-88
2023/07/09 08:54:22;;;;;;;4.25;2.80;;;;;;;;;;4987963;28;20122;-88
2023/07/09 08:56:49;;;;;;;3.85;2.88;;;;;;;;;;4980195;28;20061;-90
2023/07/09 08:59:17;;;;;;;5.28;2.95;;;;;;;;;;4986278;28;20030;-88
2023/07/09 09:01:57;;;;;;;5.65;2.88;;;;;;;;;;4973370;28;20113;-88
2023/07/09 09:04:29;;;;;;;3.47;2.85;;;;;;;;;;4976738;28;20034;-87
2023/07/09 09:07:28;;;;;;;4.38;3.00;;;;;;;;;;4976406;28;20066;-87
2023/07/09 09:10:03;;;;;;;9.60;3.22;;;;;;;;;;4968721;28;20121;-87
2023/07/09 09:12:38;;;;;;;4.75;2.60;;;;;;;;;;4975862;28;20023;-87
2023/07/09 09:15:12;;;;;;;3.38;2.42;;;;;;;;;;4972882;28;20178;-87
2023/07/09 09:17:39;;;;;;;4.18;2.45;;;;;;;;;;4973739;28;20663;-88
2023/07/09 09:20:11;;;;;;;3.88;2.60;;;;;;;;;;4973058;28;20096;-87
2023/07/09 09:23:15;;;;;;;5.70;2.70;;;;;;;;;;4972058;28;20037;-88
2023/07/09 09:25:44;;;;;;;6.43;2.80;;;;;;;;;;4972081;28;20023;-87
2023/07/09 09:28:09;;;;;;;8.00;2.75;;;;;;;;;;4974410;28;20014;-88
2023/07/09 09:30:35;;;;;;;5.25;2.90;;;;;;;;;;4976229;28;20035;-87
2023/07/09 09:33:11;;;;;;;5.15;2.95;;;;;;;;;;4977340;28;20067;-87
2023/07/09 09:35:43;;;;;;;6.60;2.85;;;;;;;;;;4975960;28;20389;-88
2023/07/09 09:38:22;;;;;;;5.05;2.75;;;;;;;;;;4971629;28;20025;-87
2023/07/09 09:40:48;;;;;;;5.93;2.80;;;;;;;;;;4977731;28;20458;-87
2023/07/09 09:43:19;;;;;;;3.10;2.65;;;;;;;;;;4975747;28;20037;-88
2023/07/09 09:45:47;;;;;;;8.82;2.90;;;;;;;;;;4975408;28;20059;-89
2023/07/09 09:48:31;;;;;;;4.53;2.85;;;;;;;;;;4973419;28;20022;-88
2023/07/09 09:51:01;;;;;;;3.85;2.67;;;;;;;;;;4972437;28;20077;-88
2023/07/09 09:53:28;;;;;;;5.38;3.22;;;;;;;;;;4972242;28;20034;-88
2023/07/09 09:55:56;;;;;;;4.38;2.53;;;;;;;;;;4973489;28;20079;-88
2023/07/09 09:58:28;;;;;;;5.40;2.65;;;;;;;;;;4972328;28;20027;-88
2023/07/09 10:00:56;;;;;;;4.30;2.67;;;;;;;;;;4980363;28;20025;-89
2023/07/09 10:03:32;;;;;;;4.60;2.50;;;;;;;;;;4981492;28;20038;-88
2023/07/09 10:06:02;;;;;;;4.43;2.58;;;;;;;;;;4970996;28;20023;-88
2023/07/09 10:08:52;;;;;;;5.90;2.97;;;;;;;;;;4978298;28;20037;-88
2023/07/09 10:11:48;;;;;;;5.43;2.60;;;;;;;;;;4980328;28;20039;-88
2023/07/09 10:14:31;;;;;;;6.10;2.60;;;;;;;;;;4966866;28;20037;-87
2023/07/09 10:17:05;;;;;;;3.45;2.40;;;;;;;;;;4959383;28;20086;-89
2023/07/09 10:19:49;;;;;;;3.40;2.17;;;;;;;;;;4975302;28;20034;-88
2023/07/09 10:22:47;;;;;;;3.38;2.53;;;;;;;;;;4976131;28;20545;-89
2023/07/09 10:25:19;;;;;;;3.83;2.17;;;;;;;;;;4970323;28;20444;-89
2023/07/09 10:28:06;;;;;;;7.05;2.80;;;;;;;;;;4991235;28;20494;-89
2023/07/09 10:31:00;;;;;;;6.53;2.42;;;;;;;;;;4976313;28;20101;-88
2023/07/09 10:33:46;;;;;;;3.40;2.33;;;;;;;;;;4987214;28;20390;-89
2023/07/09 10:37:00;;;;;;;4.35;2.70;;;;;;;;;;4969186;28;20027;-86
2023/07/09 10:39:40;;;;;;;4.13;2.80;;;;;;;;;;4973074;28;20031;-90
2023/07/09 10:42:18;;;;;;;5.88;2.47;;;;;;;;;;4978681;28;20034;-89
2023/07/09 10:44:48;;;;;;;6.35;2.28;;;;;;;;;;4992779;28;20034;-88
2023/07/09 10:47:28;;;;;;;3.77;2.50;;;;;;;;;;4974629;28;20494;-87
2023/07/09 10:49:55;;;;;;;4.82;2.78;;;;;;;;;;4967908;28;20037;-88
2023/07/09 10:52:29;;;;;;;3.67;2.70;;;;;;;;;;4975868;28;20459;-88
2023/07/09 10:55:18;;;;;;;4.05;2.25;;;;;;;;;;4975386;28;20494;-89
2023/07/09 10:58:41;;;;;;;4.40;2.40;;;;;;;;;;4989313;28;20474;-88
2023/07/09 11:01:08;;;;;;;3.25;2.20;;;;;;;;;;4915516;29;20021;-87
2023/07/09 11:03:48;;;;;;;3.10;2.30;;;;;;;;;;4915314;29;20115;-88
2023/07/09 11:06:40;;;;;;;;;;;;;;;;;;4958347;28;20046;-88
2023/07/09 11:09:30;;;;;;;6.35;2.53;;;;;;;;;;4961450;28;20392;-89
2023/07/09 11:12:01;;;;;;;4.63;2.40;;;;;;;;;;4954930;28;20028;-88
2023/07/09 11:14:58;;;;;;;3.22;2.30;;;;;;;;;;4955653;28;20030;-88
2023/07/09 11:17:27;;;;;;;4.78;2.38;;;;;;;;;;4974248;28;20038;-88
2023/07/09 11:20:00;;;;;;;3.38;2.35;;;;;;;;;;4980936;28;20032;-89
2023/07/09 11:22:40;;;;;;;7.35;2.83;;;;;;;;;;4975941;28;20041;-88
2023/07/09 11:25:14;;;;;;;6.68;2.20;;;;;;;;;;4973896;28;20031;-87
2023/07/09 11:28:01;;;;;;;6.10;2.70;;;;;;;;;;4974126;28;20023;-86
2023/07/09 11:30:29;;;;;;;6.00;2.92;;;;;;;;;;4975449;28;20034;-88
2023/07/09 11:33:02;;;;;;;4.40;2.78;;;;;;;;;;4988456;28;20029;-89
2023/07/09 11:35:49;;;;;;;9.30;2.97;;;;;;;;;;4985437;28;20023;-87
2023/07/09 11:38:18;;;;;;;3.67;2.42;;;;;;;;;;4977267;28;20129;-86
2023/07/09 11:40:54;;;;;;;5.38;2.67;;;;;;;;;;4974392;28;20030;-88
2023/07/09 11:43:35;;;;;;;5.38;2.60;;;;;;;;;;4977036;28;20030;-88
2023/07/09 11:46:07;;;;;;;;;;;;;;;;;;4974586;28;20031;-89
2023/07/09 11:48:34;;;;;;;4.93;3.17;;;;;;;;;;4976083;28;19910;-88
2023/07/09 11:51:08;;;;;;;7.57;3.20;;;;;;;;;;4975360;28;20500;-88
2023/07/09 11:53:53;;;;;;;7.40;3.33;;;;;;;;;;4974218;28;20121;-88
2023/07/09 11:56:24;;;;;;;5.32;3.00;;;;;;;;;;4974929;28;20035;-88
2023/07/09 11:58:55;;;;;;;5.90;3.17;;;;;;;;;;4974663;28;20037;-88
2023/07/09 12:01:24;;;;;;;5.10;2.97;;;;;;;;;;4983331;28;20034;-87
2023/07/09 12:03:50;;;;;;;7.95;2.97;;;;;;;;;;4976813;28;20398;-88
2023/07/09 12:06:26;;;;;;;6.03;3.22;;;;;;;;;;4978401;28;20109;-87
2023/07/09 12:08:52;;;;;;;5.57;3.05;;;;;;;;;;4972002;28;20031;-88
2023/07/09 12:11:30;;;;;;;5.80;3.28;;;;;;;;;;4974402;28;20031;-88
2023/07/09 12:14:09;;;;;;;9.23;2.72;;;;;;;;;;4974462;28;20045;-89
2023/07/09 12:16:40;;;;;;;9.20;3.17;;;;;;;;;;4970184;28;20058;-87
2023/07/09 12:19:06;;;;;;;5.63;2.63;;;;;;;;;;4973564;28;20029;-89
2023/07/09 12:21:38;;;;;;;6.90;3.00;;;;;;;;;;4972734;28;20567;-89
2023/07/09 12:24:19;;;;;;;5.43;2.45;;;;;;;;;;4972601;28;20034;-88
2023/07/09 12:26:48;;;;;;;4.43;2.95;;;;;;;;;;4990392;28;20073;-88
2023/07/09 12:29:14;;;;;;;7.75;3.47;;;;;;;;;;4981798;28;20031;-88
2023/07/09 12:31:39;;;;;;;5.00;3.00;;;;;;;;;;4976547;28;20019;-88
2023/07/09 12:34:05;;;;;;;5.60;2.78;;;;;;;;;;4989215;28;20517;-87
2023/07/09 12:36:30;;;;;;;9.35;3.15;;;;;;;;;;4975059;28;20070;-88
2023/07/09 12:39:01;;;;;;;6.63;2.70;;;;;;;;;;4976334;28;20029;-88
2023/07/09 12:41:27;;;;;;;8.50;2.80;;;;;;;;;;4989473;28;20079;-89
2023/07/09 12:43:54;;;;;;;4.85;2.67;;;;;;;;;;4994040;28;20030;-86
2023/07/09 12:46:24;;;;;;;6.85;3.15;;;;;;;;;;4990807;28;20076;-87
2023/07/09 12:48:52;;;;;;;8.23;3.33;;;;;;;;;;4993661;28;20037;-88
2023/07/09 12:51:28;;;;;;;5.20;3.20;;;;;;;;;;4973741;28;20581;-89
2023/07/09 12:54:09;;;;;;;5.53;2.78;;;;;;;;;;4973723;28;20027;-88
2023/07/09 12:56:35;;;;;;;7.00;2.97;;;;;;;;;;4975685;28;20030;-88
2023/07/09 12:59:06;;;;;;;6.25;3.03;;;;;;;;;;4975473;28;20046;-88
2023/07/09 13:01:34;;;;;;;7.32;3.08;;;;;;;;;;4974213;28;20528;-88
2023/07/09 13:04:01;;;;;;;7.82;3.10;;;;;;;;;;4967724;28;20498;-87
2023/07/09 13:06:28;;;;;;;8.60;3.78;;;;;;;;;;4976196;28;20041;-87
2023/07/09 13:09:00;;;;;;;8.25;3.28;;;;;;;;;;4991260;28;20472;-87
2023/07/09 13:11:33;;;;;;;5.55;2.90;;;;;;;;;;4970888;28;20367;-88
2023/07/09 13:14:03;;;;;;;3.85;3.00;;;;;;;;;;4973417;28;20062;-88
2023/07/09 13:16:28;;;;;;;5.57;3.15;;;;;;;;;;4973124;28;20027;-88
2023/07/09 13:18:54;;;;;;;4.65;3.00;;;;;;;;;;4972044;28;20042;-89
2023/07/09 13:21:21;;;;;;;4.95;2.83;;;;;;;;;;4973504;28;20081;-87
2023/07/09 13:23:47;;;;;;;12.38;3.65;;;;;;;;;;4973194;28;20046;-89
2023/07/09 13:26:15;;;;;;;5.25;2.95;;;;;;;;;;4972984;28;20223;-88
2023/07/09 13:28:43;;;;;;;8.43;3.03;;;;;;;;;;4966796;28;20036;-89
2023/07/09 13:31:11;;;;;;;9.90;4.07;;;;;;;;;;4970981;28;20031;-88
2023/07/09 13:33:39;;;;;;;6.97;3.00;;;;;;;;;;4970461;28;20035;-87
2023/07/09 13:36:04;;;;;;;5.70;2.97;;;;;;;;;;4981308;28;20070;-89
2023/07/09 13:38:30;;;;;;;6.78;2.80;;;;;;;;;;4976409;28;20573;-88
2023/07/09 13:40:59;;;;;;;6.10;2.90;;;;;;;;;;4977588;28;20129;-89
2023/07/09 13:43:33;;;;;;;4.80;3.13;;;;;;;;;;4978998;28;20026;-90
2023/07/09 13:46:00;;;;;;;5.53;2.63;;;;;;;;;;4975373;28;20505;-88
2023/07/09 13:48:28;;;;;;;4.63;2.80;;;;;;;;;;4970382;28;20081;-89
2023/07/09 13:50:55;;;;;;;5.93;3.10;;;;;;;;;;4975900;28;20023;-88
2023/07/09 13:53:26;;;;;;;8.20;2.97;;;;;;;;;;4975777;28;20646;-89
2023/07/09 13:55:52;;;;;;;6.22;2.95;;;;;;;;;;4968164;28;20023;-89
2023/07/09 13:58:20;;;;;;;7.53;3.17;;;;;;;;;;4980544;28;20031;-87
2023/07/09 14:00:47;;;;;;;10.30;3.17;;;;;;;;;;4974324;28;20317;-88
2023/07/09 14:03:22;;;;;;;7.18;3.10;;;;;;;;;;4981300;28;20034;-89
2023/07/09 14:05:48;;;;;;;5.32;2.95;;;;;;;;;;4978827;28;20027;-88
2023/07/09 14:08:14;;;;;;;7.55;2.60;;;;;;;;;;4982224;28;20029;-89
2023/07/09 14:10:40;;;;;;;7.35;2.83;;;;;;;;;;4996190;28;20074;-88
2023/07/09 14:13:08;;;;;;;5.53;2.88;;;;;;;;;;4995783;28;20189;-88
2023/07/09 14:15:34;;;;;;;5.40;3.00;;;;;;;;;;4996783;28;20033;-91
2023/07/09 14:17:59;;;;;;;6.82;2.63;;;;;;;;;;4996684;28;20026;-90
2023/07/09 14:20:25;;;;;;;9.43;4.07;;;;;;;;;;4984027;28;20131;-89
2023/07/09 14:22:51;;;;;;;6.35;3.17;;;;;;;;;;4976440;28;20019;-89
2023/07/09 14:25:24;;;;;;;5.40;3.00;;;;;;;;;;4978040;28;20077;-92
2023/07/09 14:27:52;;;;;;;5.95;2.63;;;;;;;;;;4976804;28;20080;-90
2023/07/09 14:30:24;;;;;;;7.53;3.10;;;;;;;;;;4975289;28;20027;-90
2023/07/09 14:32:51;;;;;;;5.07;2.90;;;;;;;;;;4997232;28;20018;-90
2023/07/09 14:35:20;;;;;;;8.85;2.83;;;;;;;;;;4977744;28;20029;-90
2023/07/09 14:37:48;;;;;;;6.88;2.83;;;;;;;;;;4976320;28;20030;-90
2023/07/09 14:40:15;;;;;;;3.90;2.80;;;;;;;;;;4976802;28;20062;-89
2023/07/09 14:42:41;;;;;;;5.20;2.83;;;;;;;;;;4977448;28;20194;-90
2023/07/09 14:45:28;;;;;;;6.00;2.85;;;;;;;;;;4975009;28;20034;-89
2023/07/09 14:47:54;;;;;;;4.43;2.70;;;;;;;;;;4976625;28;20035;-89
2023/07/09 14:50:21;;;;;;;5.85;2.65;;;;;;;;;;5082990;23;20045;-88
2023/07/09 14:52:50;;;;;;;3.83;2.63;;;;;;;;;;4978969;28;20031;-88
2023/07/09 14:55:20;;;;;;;7.10;3.17;;;;;;;;;;4993503;28;20033;-88
2023/07/09 14:58:13;;;;;;;6.10;2.90;;;;;;;;;;4978612;28;20110;-87
2023/07/09 15:00:41;;;;;;;4.57;2.47;;;;;;;;;;4950854;29;20032;-88
2023/07/09 15:03:09;;;;;;;5.32;2.75;;;;;;;;;;4966905;28;20115;-88
2023/07/09 15:05:35;;;;;;;6.00;2.75;;;;;;;;;;4953729;29;20027;-88
2023/07/09 15:08:01;;;;;;;7.40;2.65;;;;;;;;;;4960414;28;20030;-88